Time;durP1;ratioP1;P1;durP2;ratioP2;P2;SDS_P1;SDS_P2;PMS_P1;PMS_P2;Temp;Humidity;BMP_temperature;BMP_pressure;BME280_temperature;BME280_humidity;BME280_pressure;Samples;Min_cycle;Max_cycle;Signal;HPM_P1;HPM_P2
2022/07/20 00:00:42;;;;;;;12.40;4.93;;;;;;;14.03;100.00;100574.39;1612561;88;21344;-59
2022/07/20 00:03:15;;;;;;;8.60;4.10;;;;;;;13.98;100.00;100567.61;1612283;88;21483;-56
2022/07/20 00:05:41;;;;;;;9.88;4.22;;;;;;;13.93;100.00;100566.09;1594099;89;21043;-56
2022/07/20 00:08:09;;;;;;;7.67;3.40;;;;;;;13.90;100.00;100568.59;1633655;87;21080;-57
2022/07/20 00:13:22;;;;;;;7.00;4.00;;;;;;;13.75;100.00;100570.08;1632677;87;21750;-56
2022/07/20 00:15:49;;;;;;;9.30;3.47;;;;;;;13.80;100.00;100568.98;1633534;87;22215;-55
2022/07/20 00:18:18;;;;;;;7.13;2.93;;;;;;;13.83;100.00;100567.28;1632654;87;22268;-56
2022/07/20 00:20:45;;;;;;;7.30;2.87;;;;;;;13.86;100.00;100561.66;1633008;87;22433;-56
2022/07/20 00:23:12;;;;;;;6.00;3.30;;;;;;;13.86;100.00;100561.66;1633342;87;21716;-56
2022/07/20 00:25:39;;;;;;;5.27;3.00;;;;;;;13.87;100.00;100557.22;1632707;87;22136;-57
2022/07/20 00:28:08;;;;;;;6.20;2.77;;;;;;;13.77;100.00;100556.27;1632759;87;21763;-56
2022/07/20 00:30:36;;;;;;;4.83;2.00;;;;;;;13.79;100.00;100562.64;1633108;87;22298;-57
2022/07/20 00:33:03;;;;;;;6.20;2.13;;;;;;;13.74;100.00;100556.66;1633163;87;21792;-56
2022/07/20 00:35:30;;;;;;;5.03;2.17;;;;;;;13.81;100.00;100561.41;1638391;87;21736;-57
2022/07/20 00:37:57;;;;;;;6.40;1.97;;;;;;;13.78;100.00;100557.88;1632617;87;21799;-63
2022/07/20 00:40:25;;;;;;;3.60;2.00;;;;;;;13.74;100.00;100552.72;1633899;87;22152;-56
2022/07/20 00:42:52;;;;;;;4.67;1.93;;;;;;;13.74;100.00;100552.72;1633477;87;21752;-55
2022/07/20 00:45:19;;;;;;;4.07;1.97;;;;;;;13.77;100.00;100548.41;1633736;87;21847;-56
2022/07/20 00:47:48;;;;;;;7.27;1.80;;;;;;;13.85;100.00;100549.53;1633637;87;21654;-65
2022/07/20 00:50:15;;;;;;;4.57;1.73;;;;;;;13.93;100.00;100545.92;1633229;87;22226;-58
2022/07/20 00:52:42;;;;;;;3.60;1.67;;;;;;;13.92;100.00;100548.76;1634151;87;21752;-59
2022/07/20 00:55:10;;;;;;;5.97;1.80;;;;;;;13.90;100.00;100548.94;1633682;87;21666;-57
2022/07/20 00:57:38;;;;;;;4.23;1.97;;;;;;;13.83;100.00;100544.20;1633851;87;21773;-65
2022/07/20 01:00:10;;;;;;;4.73;2.30;;;;;;;13.89;100.00;100544.71;1632863;87;21768;-56
2022/07/20 01:02:36;;;;;;;4.55;2.05;;;;;;;13.88;100.00;100540.48;1633636;87;21819;-56
2022/07/20 01:05:04;;;;;;;8.20;2.40;;;;;;;13.91;100.00;100540.09;1648548;86;21062;-56
2022/07/20 01:07:32;;;;;;;5.10;2.17;;;;;;;13.91;100.00;100536.67;1655306;86;21721;-59
2022/07/20 01:09:59;;;;;;;5.50;1.93;;;;;;;13.86;100.00;100542.00;1654392;86;22233;-60
2022/07/20 01:12:26;;;;;;;3.63;2.10;;;;;;;13.86;100.00;100538.55;1655069;86;22281;-56
2022/07/20 01:14:54;;;;;;;6.67;2.30;;;;;;;13.85;100.00;100538.25;1655037;86;21505;-56
2022/07/20 01:17:21;;;;;;;5.03;2.50;;;;;;;13.84;100.00;100546.62;1655018;86;22303;-56
2022/07/20 01:19:50;;;;;;;4.80;1.70;;;;;;;13.75;100.00;100536.02;1654498;86;21769;-56
2022/07/20 01:22:18;;;;;;;7.00;2.13;;;;;;;13.73;100.00;100536.70;1654425;86;21770;-57
2022/07/20 01:24:45;;;;;;;6.33;2.33;;;;;;;13.68;100.00;100540.42;1654975;86;22036;-58
2022/07/20 01:27:13;;;;;;;4.63;2.13;;;;;;;13.62;100.00;100545.13;1654752;86;21637;-56
2022/07/20 01:29:41;;;;;;;5.43;2.30;;;;;;;13.39;100.00;100544.12;1654228;86;22261;-56
2022/07/20 01:32:08;;;;;;;4.90;2.53;;;;;;;13.31;100.00;100549.52;1654987;86;22473;-57
2022/07/20 01:34:36;;;;;;;4.87;2.70;;;;;;;13.20;100.00;100545.61;1654388;86;22207;-56
2022/07/20 01:37:04;;;;;;;6.07;2.33;;;;;;;13.07;100.00;100542.42;1654945;86;22073;-57
2022/07/20 01:39:32;;;;;;;8.67;2.70;;;;;;;12.94;100.00;100546.75;1654077;86;21614;-57
2022/07/20 01:41:59;;;;;;;7.43;3.17;;;;;;;12.94;100.00;100546.75;1654945;86;21586;-56
2022/07/20 01:44:26;;;;;;;5.63;2.70;;;;;;;12.89;100.00;100546.83;1654130;86;21806;-61
2022/07/20 01:46:54;;;;;;;5.70;2.90;;;;;;;12.88;100.00;100543.91;1655012;86;22104;-56
2022/07/20 01:49:21;;;;;;;5.17;2.67;;;;;;;12.84;100.00;100542.67;1654889;86;21634;-56
2022/07/20 01:51:49;;;;;;;4.83;2.30;;;;;;;12.81;100.00;100540.44;1654300;86;21437;-57
2022/07/20 01:54:16;;;;;;;6.57;2.80;;;;;;;12.81;100.00;100540.44;1655104;86;21709;-61
2022/07/20 01:56:45;;;;;;;6.70;2.60;;;;;;;12.80;100.00;100540.10;1654233;86;21833;-56
2022/07/20 01:59:12;;;;;;;5.40;2.60;;;;;;;12.84;100.00;100538.75;1655045;86;22190;-56
2022/07/20 02:01:39;;;;;;;6.53;2.90;;;;;;;12.85;100.00;100533.81;1654268;86;22284;-58
2022/07/20 02:04:07;;;;;;;5.27;2.63;;;;;;;12.85;100.00;100533.81;1654664;85;21851;-56
2022/07/20 02:06:34;;;;;;;5.13;2.43;;;;;;;12.89;100.00;100538.98;1653805;86;22185;-64
2022/07/20 02:09:01;;;;;;;5.00;2.37;;;;;;;12.96;100.00;100529.06;1623948;88;21718;-56
2022/07/20 02:11:30;;;;;;;5.83;2.67;;;;;;;13.13;100.00;100536.90;1653534;86;21760;-57
2022/07/20 02:13:58;;;;;;;4.87;2.27;;;;;;;13.18;100.00;100533.20;1623959;88;21789;-56
2022/07/20 02:16:26;;;;;;;8.50;2.23;;;;;;;13.29;100.00;100540.53;1654596;86;21720;-66
2022/07/20 02:18:56;;;;;;;3.90;2.23;;;;;;;13.34;100.00;100539.47;1653809;86;21788;-56
2022/07/20 02:21:23;;;;;;;4.23;1.97;;;;;;;13.34;100.00;100529.00;1624336;88;21808;-57
2022/07/20 02:23:51;;;;;;;5.47;2.03;;;;;;;13.41;100.00;100530.34;1653794;86;22241;-56
2022/07/20 02:26:18;;;;;;;4.73;2.20;;;;;;;13.50;100.00;100528.36;1654388;86;22180;-57
2022/07/20 02:28:45;;;;;;;4.30;1.90;;;;;;;13.55;100.00;100531.19;1622970;88;22230;-57
2022/07/20 02:31:12;;;;;;;6.77;1.70;;;;;;;13.59;100.00;100529.80;1654077;86;21840;-57
2022/07/20 02:33:40;;;;;;;5.23;2.50;;;;;;;13.64;100.00;100527.42;1623317;88;21774;-56
2022/07/20 02:36:08;;;;;;;6.23;1.60;;;;;;;13.67;100.00;100533.55;1653977;86;21823;-56
2022/07/20 02:38:35;;;;;;;4.00;1.70;;;;;;;13.72;100.00;100529.86;1624134;88;21714;-55
2022/07/20 02:41:02;;;;;;;4.40;1.90;;;;;;;13.82;100.00;100532.89;1653796;86;20959;-57
2022/07/20 02:43:30;;;;;;;4.20;1.50;;;;;;;13.88;100.00;100521.63;1623893;88;21392;-63
2022/07/20 02:45:57;;;;;;;4.97;1.87;;;;;;;13.88;100.00;100521.63;1654150;86;22011;-56
2022/07/20 02:48:24;;;;;;;5.23;1.87;;;;;;;14.11;100.00;100524.40;1624211;88;21500;-56
2022/07/20 02:50:52;;;;;;;5.53;2.10;;;;;;;14.11;100.00;100524.40;1624280;88;21163;-56
2022/07/20 02:53:21;;;;;;;5.77;2.30;;;;;;;14.20;100.00;100525.01;1623630;88;21637;-65
2022/07/20 02:55:48;;;;;;;4.37;1.97;;;;;;;14.28;100.00;100528.27;1655028;86;22154;-56
2022/07/20 02:58:15;;;;;;;4.77;1.70;;;;;;;14.40;100.00;100533.72;1625208;88;21654;-57
2022/07/20 03:00:43;;;;;;;4.17;1.90;;;;;;;14.53;100.00;100530.31;1655170;86;20979;-55
2022/07/20 03:03:11;;;;;;;6.53;2.37;;;;;;;14.90;100.00;100534.63;1654921;85;21111;-61
2022/07/20 03:05:38;;;;;;;5.57;2.67;;;;;;;15.56;100.00;100531.28;1653255;86;21106;-60
2022/07/20 03:08:07;;;;;;;5.90;2.80;;;;;;;16.17;100.00;100529.97;1624837;87;21453;-56
2022/07/20 03:10:34;;;;;;;7.27;2.30;;;;;;;16.54;100.00;100531.42;1654922;86;21115;-55
2022/07/20 03:13:02;;;;;;;6.97;2.10;;;;;;;17.19;100.00;100525.23;1624903;88;21143;-55
2022/07/20 03:15:30;;;;;;;4.83;2.27;;;;;;;18.16;100.00;100521.78;1654378;86;21172;-64
2022/07/20 03:17:58;;;;;;;5.00;2.20;;;;;;;19.39;100.00;100516.06;1624199;88;21122;-57
2022/07/20 03:20:27;;;;;;;7.13;2.43;;;;;;;20.47;100.00;100508.17;1624884;88;21490;-56
2022/07/20 03:22:55;;;;;;;6.37;2.57;;;;;;;21.42;100.00;100509.73;1654898;86;21039;-56
2022/07/20 03:25:23;;;;;;;5.27;2.13;;;;;;;22.33;100.00;100507.67;1624772;88;21036;-57
2022/07/20 03:27:55;;;;;;;4.40;2.60;;;;;;;22.86;100.00;100505.08;1653920;86;21074;-57
2022/07/20 03:30:25;;;;;;;5.23;2.60;;;;;;;23.23;100.00;100505.00;1655136;86;21158;-56
2022/07/20 03:32:54;;;;;;;7.07;2.90;;;;;;;23.29;100.00;100503.41;1624911;88;21616;-56
2022/07/20 03:35:22;;;;;;;4.40;2.73;;;;;;;23.17;100.00;100503.38;1654668;86;21015;-58
2022/07/20 03:37:50;;;;;;;5.27;2.60;;;;;;;22.90;100.00;100502.97;1624551;88;21109;-56
2022/07/20 03:40:17;;;;;;;4.17;2.73;;;;;;;22.67;100.00;100506.83;1654695;86;21270;-56
2022/07/20 03:42:44;;;;;;;4.70;2.70;;;;;;;22.44;100.00;100502.70;1624264;88;21154;-57
2022/07/20 03:45:12;;;;;;;7.63;2.60;;;;;;;22.14;100.00;100503.28;1624175;88;20986;-58
2022/07/20 03:47:39;;;;;;;7.90;2.60;;;;;;;21.91;100.00;100510.22;1653855;86;21577;-64
2022/07/20 03:50:07;;;;;;;4.00;2.37;;;;;;;21.70;100.00;100517.17;1623944;88;21516;-58
2022/07/20 03:52:34;;;;;;;5.00;2.10;;;;;;;21.58;100.00;100515.47;1654927;86;21260;-57
2022/07/20 03:55:02;;;;;;;4.40;2.23;;;;;;;21.53;100.00;100519.93;1624720;88;21083;-58
2022/07/20 03:57:29;;;;;;;4.43;2.17;;;;;;;21.42;100.00;100519.02;1654516;86;21019;-58
2022/07/20 03:59:56;;;;;;;3.53;2.07;;;;;;;21.33;100.00;100511.23;1623535;88;22106;-62
2022/07/20 04:02:23;;;;;;;4.13;2.03;;;;;;;21.18;100.00;100512.34;1654365;86;21118;-57
2022/07/20 04:04:50;;;;;;;2.57;1.60;;;;;;;21.08;100.00;100515.66;1624124;88;21548;-57
2022/07/20 04:07:17;;;;;;;4.90;1.83;;;;;;;21.00;100.00;100514.77;1654083;86;21030;-60
2022/07/20 04:09:46;;;;;;;2.90;1.90;;;;;;;20.86;100.00;100516.96;1624266;88;21644;-57
2022/07/20 04:12:23;;;;;;;3.27;2.00;;;;;;;20.81;100.00;100515.05;1654384;86;21537;-57
2022/07/20 04:14:50;;;;;;;4.60;1.97;;;;;;;20.72;100.00;100511.23;1624319;88;21003;-58
2022/07/20 04:17:18;;;;;;;7.03;2.33;;;;;;;20.69;100.00;100516.21;1653724;86;21573;-59
2022/07/20 04:19:47;;;;;;;7.93;1.90;;;;;;;20.68;100.00;100514.59;1623875;88;21514;-66
2022/07/20 04:22:14;;;;;;;4.50;2.10;;;;;;;20.66;100.00;100517.48;1654330;86;21519;-56
2022/07/20 04:24:42;;;;;;;5.10;2.10;;;;;;;20.62;100.00;100511.87;1624247;88;21037;-56
2022/07/20 04:27:09;;;;;;;4.67;2.03;;;;;;;20.63;100.00;100507.38;1653634;86;21089;-56
2022/07/20 04:29:37;;;;;;;5.47;2.37;;;;;;;20.65;100.00;100510.07;1623827;88;21869;-56
2022/07/20 04:32:06;;;;;;;4.30;2.77;;;;;;;20.70;100.00;100508.01;1653957;86;21059;-61
2022/07/20 04:34:33;;;;;;;5.30;2.67;;;;;;;20.81;100.00;100506.30;1654242;86;21499;-57
2022/07/20 04:37:00;;;;;;;7.20;3.00;;;;;;;21.02;100.00;100510.01;1623485;88;21078;-60
2022/07/20 04:39:28;;;;;;;7.60;3.50;;;;;;;21.23;100.00;100512.41;1654415;86;22049;-56
2022/07/20 04:41:56;;;;;;;5.80;3.60;;;;;;;21.42;100.00;100511.06;1624442;88;21031;-55
2022/07/20 04:44:24;;;;;;;5.50;3.07;;;;;;;21.52;100.00;100507.20;1623241;88;21028;-58
2022/07/20 04:46:52;;;;;;;5.63;2.67;;;;;;;21.71;100.00;100501.55;1653366;86;21509;-55
2022/07/20 04:49:20;;;;;;;4.47;2.33;;;;;;;21.97;100.00;100499.41;1623846;88;21047;-54
2022/07/20 04:51:49;;;;;;;4.57;2.40;;;;;;;22.29;100.00;100503.92;1654253;86;21032;-57
2022/07/20 04:54:18;;;;;;;4.90;2.43;;;;;;;22.65;100.00;100504.16;1624249;88;21162;-58
2022/07/20 04:56:45;;;;;;;4.83;3.07;;;;;;;23.05;100.00;100502.27;1653417;86;21157;-64
2022/07/20 04:59:12;;;;;;;4.10;2.07;;;;;;;23.34;100.00;100498.66;1623824;88;21344;-55
2022/07/20 05:01:40;;;;;;;4.03;1.70;;;;;;;23.76;100.00;100499.03;1624402;88;20961;-55
2022/07/20 05:04:07;;;;;;;3.47;2.00;;;;;;;24.65;100.00;100492.86;1654295;86;21306;-55
2022/07/20 05:06:34;;;;;;;3.87;2.20;;;;;;;25.90;86.10;100486.92;1623635;88;21171;-64
2022/07/20 05:09:03;;;;;;;3.83;2.30;;;;;;;27.18;70.14;100483.76;1654389;86;21082;-55
2022/07/20 05:11:31;;;;;;;4.92;2.80;;;;;;;28.37;63.02;100478.97;1654645;86;21048;-57
2022/07/20 05:14:00;;;;;;;4.72;3.22;;;;;;;29.49;55.08;100469.95;1624569;88;21031;-55
2022/07/20 05:16:28;;;;;;;5.15;2.60;;;;;;;30.61;49.72;100465.00;1624711;88;21089;-57
2022/07/20 05:18:56;;;;;;;7.22;2.35;;;;;;;31.50;45.57;100466.96;1653868;86;21775;-56
2022/07/20 05:21:23;;;;;;;7.72;2.83;;;;;;;32.17;43.37;100462.88;1624433;88;21090;-56
2022/07/20 05:23:50;;;;;;;2.55;1.60;;;;;;;32.96;41.52;100458.70;1655069;86;21063;-55
2022/07/20 05:26:17;;;;;;;5.05;1.85;;;;;;;33.77;38.94;100456.58;1654929;86;21058;-56
2022/07/20 05:28:45;;;;;;;2.72;1.92;;;;;;;34.46;37.24;100453.06;1654218;86;21046;-63
2022/07/20 05:31:13;;;;;;;5.47;2.08;;;;;;;35.04;36.14;100448.30;1624691;88;22215;-55
2022/07/20 05:33:42;;;;;;;4.60;2.12;;;;;;;35.73;34.41;100442.81;1654649;86;20940;-58
2022/07/20 05:36:09;;;;;;;3.65;2.27;;;;;;;36.39;32.81;100439.95;1624529;87;21474;-56
2022/07/20 05:38:36;;;;;;;5.62;1.80;;;;;;;36.71;31.77;100436.61;1654309;86;21086;-64
2022/07/20 05:41:05;;;;;;;3.47;1.80;;;;;;;36.89;31.42;100433.70;1624654;88;21123;-56
2022/07/20 05:43:32;;;;;;;4.70;2.22;;;;;;;37.01;30.76;100432.25;1655081;86;21794;-56
2022/07/20 05:46:00;;;;;;;2.85;1.92;;;;;;;37.31;30.52;100430.85;1624405;88;21092;-57
2022/07/20 05:48:27;;;;;;;3.15;1.80;;;;;;;37.66;29.89;100423.37;1624571;88;21080;-55
2022/07/20 05:50:54;;;;;;;3.05;1.95;;;;;;;37.79;29.94;100419.89;1623669;88;21530;-62
2022/07/20 05:53:21;;;;;;;3.47;2.10;;;;;;;37.99;29.48;100420.63;1654888;86;21476;-57
2022/07/20 05:55:50;;;;;;;3.80;2.10;;;;;;;38.24;29.17;100418.29;1624618;88;21797;-56
2022/07/20 05:58:17;;;;;;;4.28;2.75;;;;;;;38.51;28.53;100421.03;1654729;86;21070;-57
2022/07/20 06:00:45;;;;;;;5.30;3.40;;;;;;;38.59;28.06;100412.57;1655019;86;21027;-64
2022/07/20 06:03:12;;;;;;;5.25;3.62;;;;;;;38.89;27.56;100408.50;1653737;86;21458;-62
2022/07/20 06:05:39;;;;;;;3.95;3.50;;;;;;;39.01;26.89;100413.50;1624246;88;21551;-57
2022/07/20 06:08:08;;;;;;;5.87;3.42;;;;;;;38.89;26.63;100409.08;1654787;86;21014;-58
2022/07/20 06:10:36;;;;;;;3.70;3.02;;;;;;;38.60;27.17;100405.96;1624728;88;20917;-56
2022/07/20 06:13:03;;;;;;;3.80;2.83;;;;;;;38.63;26.64;100399.78;1624030;88;21079;-64
2022/07/20 06:15:32;;;;;;;2.98;2.30;;;;;;;38.67;26.86;100391.07;1654725;86;21006;-56
2022/07/20 06:18:01;;;;;;;2.77;1.85;;;;;;;38.69;26.57;100386.63;1624530;88;21007;-57
2022/07/20 06:20:29;;;;;;;2.75;2.27;;;;;;;38.63;26.40;100393.55;1654910;86;26911;-57
2022/07/20 06:22:58;;;;;;;4.17;2.40;;;;;;;38.69;26.84;100384.69;1623704;88;21081;-60
2022/07/20 06:25:25;;;;;;;2.90;2.12;;;;;;;38.92;26.34;100385.95;1624432;88;21470;-57
2022/07/20 06:27:52;;;;;;;4.75;2.72;;;;;;;39.06;26.08;100382.61;1654759;86;21090;-57
2022/07/20 06:30:19;;;;;;;4.80;3.75;;;;;;;39.07;25.83;100380.08;1624698;88;21036;-55
2022/07/20 06:32:47;;;;;;;4.62;3.58;;;;;;;39.03;25.85;100373.81;1654510;86;21174;-64
2022/07/20 06:35:14;;;;;;;6.15;2.87;;;;;;;38.98;26.16;100370.62;1654291;86;20999;-56
2022/07/20 06:37:41;;;;;;;4.08;2.90;;;;;;;38.82;25.61;100360.72;1624651;88;21090;-58
2022/07/20 06:40:11;;;;;;;3.65;2.33;;;;;;;38.83;25.74;100366.95;1654828;86;21070;-56
2022/07/20 06:42:38;;;;;;;2.12;1.67;;;;;;;38.61;26.19;100358.52;1624819;88;21098;-57
2022/07/20 06:45:06;;;;;;;3.40;1.60;;;;;;;38.49;26.18;100356.59;1654265;86;21265;-58
2022/07/20 06:47:34;;;;;;;3.40;1.32;;;;;;;38.43;26.00;100347.97;1655036;86;21577;-58
2022/07/20 06:50:03;;;;;;;1.60;1.50;;;;;;;38.40;26.03;100346.77;1654874;86;21061;-58
2022/07/20 06:52:34;;;;;;;2.12;1.57;;;;;;;38.22;25.96;100342.98;1655248;86;21015;-56
2022/07/20 06:55:02;;;;;;;2.70;1.82;;;;;;;38.01;26.26;100339.98;1624057;88;20904;-66
2022/07/20 06:57:29;;;;;;;3.33;1.72;;;;;;;37.93;25.99;100335.02;1654923;86;21529;-56
2022/07/20 06:59:56;;;;;;;3.12;2.22;;;;;;;37.82;26.59;100336.19;1624740;88;20936;-57
2022/07/20 07:02:24;;;;;;;2.40;1.62;;;;;;;37.88;26.43;100329.29;1624743;88;21012;-58
2022/07/20 07:04:51;;;;;;;2.17;1.40;;;;;;;37.86;26.38;100335.66;1624942;88;21086;-63
2022/07/20 07:07:19;;;;;;;1.52;1.27;;;;;;;38.06;25.69;100335.58;1636862;86;21028;-56
2022/07/20 07:09:47;;;;;;;2.25;1.40;;;;;;;38.11;25.36;100335.25;1631909;87;21333;-56
2022/07/20 07:12:14;;;;;;;1.80;1.40;;;;;;;38.09;25.85;100331.55;1631561;87;21007;-58
2022/07/20 07:14:42;;;;;;;2.30;1.25;;;;;;;37.87;25.57;100326.92;1631643;87;20885;-56
2022/07/20 07:17:09;;;;;;;3.25;1.35;;;;;;;37.64;25.93;100324.23;1630500;87;21612;-63
2022/07/20 07:19:40;;;;;;;1.80;1.40;;;;;;;37.49;26.22;100328.08;1631711;87;21116;-56
2022/07/20 07:22:07;;;;;;;3.15;1.60;;;;;;;37.43;26.13;100326.02;1631554;87;21183;-55
2022/07/20 07:24:34;;;;;;;3.90;1.30;;;;;;;37.32;26.04;100327.78;1631304;87;21072;-55
2022/07/20 07:27:02;;;;;;;1.37;1.10;;;;;;;37.33;26.71;100326.62;1631895;87;21087;-62
2022/07/20 07:29:29;;;;;;;2.12;1.30;;;;;;;37.43;25.96;100318.67;1631459;87;21068;-56
2022/07/20 07:31:58;;;;;;;1.45;1.02;;;;;;;37.39;26.86;100321.89;1631833;87;21090;-57
2022/07/20 07:34:27;;;;;;;;;;;;;;;37.52;26.10;100323.08;1634173;86;21102;-57
2022/07/20 07:36:54;;;;;;;2.27;1.30;;;;;;;37.66;25.91;100321.38;1631274;87;20110;-57
2022/07/20 07:39:22;;;;;;;2.10;1.20;;;;;;;37.89;26.27;100315.13;1630382;87;20956;-60
2022/07/20 07:41:49;;;;;;;3.87;1.60;;;;;;;38.27;26.04;100311.95;1631158;87;21369;-56
2022/07/20 07:44:16;;;;;;;2.77;1.30;;;;;;;38.34;25.44;100310.14;1630983;87;22319;-60
2022/07/20 07:46:44;;;;;;;2.00;1.20;;;;;;;38.13;26.08;100299.71;1630958;87;21161;-58
2022/07/20 07:49:13;;;;;;;4.08;1.27;;;;;;;38.02;26.18;100301.51;1630308;87;21028;-60
2022/07/20 07:51:42;;;;;;;2.75;1.40;;;;;;;37.93;25.84;100303.14;1630697;87;21344;-58
2022/07/20 07:54:10;;;;;;;5.10;2.30;;;;;;;37.90;26.55;100294.34;1631120;87;21451;-56
2022/07/20 07:56:38;;;;;;;7.40;4.70;;;;;;;37.92;26.17;100289.34;1631034;87;21008;-58
2022/07/20 07:59:06;;;;;;;2.00;1.37;;;;;;;37.78;26.38;100286.38;1630609;87;22313;-55
2022/07/20 08:01:34;;;;;;;1.67;1.12;;;;;;;37.40;26.40;100281.30;1631212;87;21090;-65
2022/07/20 08:04:03;;;;;;;2.58;1.10;;;;;;;36.83;27.25;100288.45;1630999;87;21457;-58
2022/07/20 08:06:30;;;;;;;1.87;1.02;;;;;;;36.09;27.27;100283.61;1630789;86;21122;-57
2022/07/20 08:08:58;;;;;;;3.95;1.42;;;;;;;35.34;28.35;100280.67;1630532;87;21087;-58
2022/07/20 08:11:27;;;;;;;2.20;1.57;;;;;;;35.07;29.24;100276.90;1631314;87;21075;-57
2022/07/20 08:13:54;;;;;;;1.52;1.07;;;;;;;35.48;29.50;100270.75;1630857;87;20955;-57
2022/07/20 08:16:21;;;;;;;3.37;1.77;;;;;;;35.98;28.84;100277.37;1631137;87;21632;-57
2022/07/20 08:18:50;;;;;;;2.60;1.75;;;;;;;36.34;28.41;100271.36;1630879;87;21008;-58
2022/07/20 08:21:17;;;;;;;1.80;1.22;;;;;;;36.43;27.99;100266.49;1631297;87;21536;-57
2022/07/20 08:23:45;;;;;;;4.50;1.40;;;;;;;36.39;27.80;100266.99;1630602;87;21242;-57
2022/07/20 08:26:12;;;;;;;3.12;1.55;;;;;;;35.95;27.66;100266.41;1631188;86;21979;-57
2022/07/20 08:28:40;;;;;;;2.85;1.55;;;;;;;35.38;28.73;100265.07;1631593;87;21557;-57
2022/07/20 08:31:08;;;;;;;2.67;1.60;;;;;;;34.90;28.83;100267.73;1630785;86;21016;-59
2022/07/20 08:33:35;;;;;;;2.70;1.37;;;;;;;34.53;30.27;100262.47;1631030;87;21520;-58
2022/07/20 08:36:03;;;;;;;3.87;1.90;;;;;;;34.65;30.20;100251.38;1631227;87;21795;-56
2022/07/20 08:38:30;;;;;;;2.17;1.55;;;;;;;34.83;30.03;100256.13;1631148;87;21494;-58
2022/07/20 08:40:57;;;;;;;2.83;1.55;;;;;;;34.72;29.93;100258.34;1631213;87;21018;-65
2022/07/20 08:43:25;;;;;;;3.27;1.90;;;;;;;34.29;29.92;100249.79;1631213;87;21529;-58
2022/07/20 08:45:52;;;;;;;2.55;1.50;;;;;;;33.75;30.48;100247.36;1631111;87;20969;-57
2022/07/20 08:48:21;;;;;;;2.58;1.52;;;;;;;33.06;31.05;100244.14;1631446;87;21303;-57
2022/07/20 08:50:48;;;;;;;3.00;1.52;;;;;;;32.73;32.36;100238.73;1631210;87;21008;-59
2022/07/20 08:53:17;;;;;;;2.10;1.30;;;;;;;32.81;32.36;100228.44;1630801;87;20996;-56
2022/07/20 08:55:43;;;;;;;2.95;1.75;;;;;;;33.25;32.72;100224.70;1635692;87;21068;-60
2022/07/20 08:58:12;;;;;;;2.80;1.60;;;;;;;33.57;31.87;100222.50;1631195;87;21924;-57
2022/07/20 09:00:39;;;;;;;3.95;1.50;;;;;;;33.78;31.54;100209.41;1631077;87;21246;-65
2022/07/20 09:03:08;;;;;;;4.33;1.80;;;;;;;34.03;31.42;100202.08;1631229;87;21474;-60
2022/07/20 09:05:37;;;;;;;4.17;1.90;;;;;;;34.50;31.34;100197.41;1631078;87;21015;-57
2022/07/20 09:08:07;;;;;;;4.33;2.10;;;;;;;34.88;30.13;100192.80;1625928;87;21154;-56
2022/07/20 09:10:37;;;;;;;3.25;1.80;;;;;;;34.77;30.40;100191.73;1654027;86;21063;-58
2022/07/20 09:13:12;;;;;;;3.05;1.75;;;;;;;34.52;30.81;100189.17;1653327;85;22502;-57
2022/07/20 09:15:47;;;;;;;2.58;1.75;;;;;;;34.57;31.02;100183.50;1653866;86;21094;-57
2022/07/20 09:18:21;;;;;;;3.52;1.60;;;;;;;34.49;30.21;100180.39;1653815;86;21513;-63
2022/07/20 09:20:55;;;;;;;3.47;1.50;;;;;;;34.47;30.88;100176.41;1624278;88;21848;-56
2022/07/20 09:23:27;;;;;;;4.12;1.87;;;;;;;34.26;30.26;100173.36;1654072;86;21071;-57
2022/07/20 09:26:12;;;;;;;2.95;1.50;;;;;;;33.99;30.67;100173.57;1654392;86;21269;-65
2022/07/20 09:28:51;;;;;;;2.80;2.02;;;;;;;33.96;30.58;100159.34;1623599;87;21051;-62
2022/07/20 09:31:27;;;;;;;4.15;1.98;;;;;;;34.25;30.84;100148.01;1624072;87;21008;-57
2022/07/20 09:34:14;;;;;;;3.08;1.90;;;;;;;34.43;30.49;100151.17;1635708;86;21843;-56
2022/07/20 09:36:45;;;;;;;3.10;1.92;;;;;;;34.52;30.02;100141.80;1624097;88;21080;-56
2022/07/20 09:39:19;;;;;;;3.05;2.20;;;;;;;34.51;30.29;100135.37;1653657;86;21381;-57
2022/07/20 09:41:58;;;;;;;3.22;2.20;;;;;;;34.57;31.04;100138.83;1654419;86;21857;-61
2022/07/20 09:44:31;;;;;;;3.83;1.80;;;;;;;34.75;30.94;100131.73;1654663;86;21126;-57
2022/07/20 09:46:58;;;;;;;3.05;2.10;;;;;;;34.63;30.59;100125.84;1623625;88;20953;-64
2022/07/20 09:49:32;;;;;;;2.90;1.90;;;;;;;34.39;30.95;100122.09;1654639;86;21089;-57
2022/07/20 09:52:01;;;;;;;4.30;1.92;;;;;;;34.24;31.09;100120.71;1623517;88;21770;-56
2022/07/20 09:54:28;;;;;;;3.80;2.12;;;;;;;33.98;30.77;100119.27;1654144;86;21029;-56
2022/07/20 09:56:56;;;;;;;3.08;1.40;;;;;;;33.78;31.26;100116.91;1623456;88;21083;-57
2022/07/20 09:59:23;;;;;;;2.55;1.50;;;;;;;33.93;30.21;100109.21;1654285;86;21047;-55
2022/07/20 10:01:53;;;;;;;2.77;2.02;;;;;;;33.94;30.48;100110.78;1653830;86;21015;-61
2022/07/20 10:04:21;;;;;;;2.33;1.60;;;;;;;34.12;30.44;100102.05;1624176;88;21400;-57
2022/07/20 10:06:51;;;;;;;3.17;2.05;;;;;;;34.37;30.61;100097.31;1653966;86;21601;-57
2022/07/20 10:09:20;;;;;;;4.33;2.08;;;;;;;34.57;31.13;100094.16;1657927;86;21496;-55
2022/07/20 10:11:48;;;;;;;2.33;1.50;;;;;;;34.78;30.11;100080.38;1624272;88;21104;-62
2022/07/20 10:14:19;;;;;;;2.17;1.70;;;;;;;34.99;29.94;100086.07;1654037;86;21126;-64
2022/07/20 10:16:51;;;;;;;2.35;1.52;;;;;;;35.06;28.94;100071.37;1624116;87;21392;-58
2022/07/20 10:19:19;;;;;;;3.05;1.35;;;;;;;34.93;29.39;100072.02;1654441;86;21568;-57
2022/07/20 10:21:52;;;;;;;2.98;1.40;;;;;;;34.83;30.09;100063.86;1624560;88;21175;-61
2022/07/20 10:24:31;;;;;;;1.98;1.30;;;;;;;35.06;29.45;100073.50;1623827;88;20960;-57
2022/07/20 10:27:25;;;;;;;2.75;1.80;;;;;;;35.18;29.64;100063.69;1654783;86;21079;-58
2022/07/20 10:29:54;;;;;;;5.50;1.72;;;;;;;35.33;29.65;100068.28;1623547;88;21402;-60
2022/07/20 10:32:28;;;;;;;2.87;1.92;;;;;;;35.31;29.67;100055.67;1624308;88;21106;-57
2022/07/20 10:35:00;;;;;;;4.58;2.65;;;;;;;34.96;29.67;100061.81;1654502;86;20908;-58
2022/07/20 10:37:40;;;;;;;2.47;1.87;;;;;;;34.67;30.91;100068.50;1654297;86;20920;-60
2022/07/20 10:40:21;;;;;;;3.17;1.85;;;;;;;34.71;30.35;100062.61;1624420;88;20952;-58
2022/07/20 10:43:13;;;;;;;4.10;1.77;;;;;;;34.95;29.54;100045.36;1624418;88;21242;-58
2022/07/20 10:45:41;;;;;;;1.90;1.47;;;;;;;35.23;30.06;100041.73;1654708;86;21019;-57
2022/07/20 10:48:17;;;;;;;2.00;1.35;;;;;;;35.48;29.16;100036.84;1624635;88;20917;-56
2022/07/20 10:50:53;;;;;;;3.17;1.37;;;;;;;35.57;29.40;100032.00;1623862;88;21036;-57
2022/07/20 10:53:28;;;;;;;2.30;1.52;;;;;;;35.72;28.38;100024.94;1625314;87;21000;-56
2022/07/20 10:55:58;;;;;;;2.60;1.90;;;;;;;35.41;29.19;100019.86;1624820;88;20944;-56
2022/07/20 10:58:35;;;;;;;4.83;1.90;;;;;;;35.20;29.40;100014.01;1653982;86;21036;-62
2022/07/20 11:01:11;;;;;;;2.40;1.50;;;;;;;35.13;29.53;100021.98;1654558;86;21357;-58
2022/07/20 11:03:46;;;;;;;2.85;1.60;;;;;;;35.20;29.69;100011.30;1654563;86;21072;-56
2022/07/20 11:06:19;;;;;;;3.12;1.50;;;;;;;35.14;29.44;100002.66;1623866;86;21064;-62
2022/07/20 11:08:57;;;;;;;2.35;1.40;;;;;;;35.08;29.52;100005.41;1637100;86;21272;-55
2022/07/20 11:11:31;;;;;;;2.20;1.55;;;;;;;35.09;29.55;99990.75;1631318;87;21140;-58
2022/07/20 11:14:01;;;;;;;3.35;1.60;;;;;;;35.07;28.90;99980.25;1631214;87;21496;-57
2022/07/20 11:16:29;;;;;;;2.52;1.80;;;;;;;34.76;29.60;99977.61;1631033;87;21048;-55
2022/07/20 11:18:59;;;;;;;3.83;2.40;;;;;;;34.68;29.68;99965.05;1631397;87;21027;-57
2022/07/20 11:21:43;;;;;;;2.37;1.70;;;;;;;34.55;29.51;99968.42;1631075;87;21166;-65
2022/07/20 11:24:27;;;;;;;2.47;1.75;;;;;;;34.30;29.50;99963.19;1630315;87;21903;-58
2022/07/20 11:26:56;;;;;;;3.08;1.80;;;;;;;34.25;29.67;99962.11;1631298;87;21169;-65
2022/07/20 11:29:24;;;;;;;2.30;1.52;;;;;;;34.23;30.21;99964.94;1630574;87;21012;-58
2022/07/20 11:31:51;;;;;;;3.60;1.60;;;;;;;34.28;29.41;99959.25;1630756;87;21086;-59